sensor_id;sensor_type;location;lat;lon;timestamp;P1;durP1;ratioP1;P2;durP2;ratioP2
11854;SDS011;5987;53.140;8.904;2024-03-02T00:00:59;16.33;;;10.03;;
11854;SDS011;5987;53.140;8.904;2024-03-02T00:04:04;16.10;;;8.80;;
11854;SDS011;5987;53.140;8.904;2024-03-02T00:07:12;16.63;;;9.80;;
11854;SDS011;5987;53.140;8.904;2024-03-02T00:10:19;14.57;;;9.30;;
11854;SDS011;5987;53.140;8.904;2024-03-02T00:13:26;19.00;;;10.47;;
11854;SDS011;5987;53.140;8.904;2024-03-02T00:16:31;15.23;;;9.13;;
11854;SDS011;5987;53.140;8.904;2024-03-02T00:19:38;14.43;;;9.03;;
11854;SDS011;5987;53.140;8.904;2024-03-02T00:22:43;15.90;;;9.60;;
11854;SDS011;5987;53.140;8.904;2024-03-02T00:25:52;14.17;;;8.67;;
11854;SDS011;5987;53.140;8.904;2024-03-02T00:28:58;15.57;;;9.60;;
11854;SDS011;5987;53.140;8.904;2024-03-02T00:32:02;13.07;;;8.63;;
11854;SDS011;5987;53.140;8.904;2024-03-02T00:35:10;15.90;;;9.20;;
11854;SDS011;5987;53.140;8.904;2024-03-02T00:38:16;20.10;;;9.83;;
11854;SDS011;5987;53.140;8.904;2024-03-02T00:41:21;12.07;;;8.60;;
11854;SDS011;5987;53.140;8.904;2024-03-02T00:44:27;13.37;;;9.33;;
11854;SDS011;5987;53.140;8.904;2024-03-02T00:47:37;14.27;;;8.60;;
11854;SDS011;5987;53.140;8.904;2024-03-02T00:50:42;14.50;;;9.00;;
11854;SDS011;5987;53.140;8.904;2024-03-02T00:53:47;16.37;;;9.77;;
11854;SDS011;5987;53.140;8.904;2024-03-02T00:56:52;14.50;;;9.60;;
11854;SDS011;5987;53.140;8.904;2024-03-02T00:59:58;17.07;;;9.30;;
11854;SDS011;5987;53.140;8.904;2024-03-02T01:03:02;18.37;;;9.20;;
11854;SDS011;5987;53.140;8.904;2024-03-02T01:06:06;14.30;;;8.37;;
11854;SDS011;5987;53.140;8.904;2024-03-02T01:09:12;16.07;;;9.47;;
11854;SDS011;5987;53.140;8.904;2024-03-02T01:12:16;17.80;;;9.63;;
11854;SDS011;5987;53.140;8.904;2024-03-02T01:15:20;15.33;;;9.43;;
11854;SDS011;5987;53.140;8.904;2024-03-02T01:18:24;15.10;;;9.37;;
11854;SDS011;5987;53.140;8.904;2024-03-02T01:21:28;16.60;;;9.80;;
11854;SDS011;5987;53.140;8.904;2024-03-02T01:24:33;16.83;;;9.97;;
11854;SDS011;5987;53.140;8.904;2024-03-02T01:27:37;14.73;;;9.27;;
11854;SDS011;5987;53.140;8.904;2024-03-02T01:30:41;16.40;;;10.27;;
11854;SDS011;5987;53.140;8.904;2024-03-02T01:33:45;15.03;;;10.00;;
11854;SDS011;5987;53.140;8.904;2024-03-02T01:36:49;15.23;;;9.10;;
11854;SDS011;5987;53.140;8.904;2024-03-02T01:39:54;15.00;;;9.20;;
11854;SDS011;5987;53.140;8.904;2024-03-02T01:42:58;16.77;;;10.17;;
11854;SDS011;5987;53.140;8.904;2024-03-02T01:46:02;13.17;;;9.07;;
11854;SDS011;5987;53.140;8.904;2024-03-02T01:49:06;14.70;;;9.47;;
11854;SDS011;5987;53.140;8.904;2024-03-02T01:52:11;18.67;;;9.73;;
11854;SDS011;5987;53.140;8.904;2024-03-02T01:55:16;16.90;;;9.77;;
11854;SDS011;5987;53.140;8.904;2024-03-02T01:58:20;19.17;;;10.50;;
11854;SDS011;5987;53.140;8.904;2024-03-02T02:01:24;17.20;;;9.93;;
11854;SDS011;5987;53.140;8.904;2024-03-02T02:04:28;17.73;;;9.77;;
11854;SDS011;5987;53.140;8.904;2024-03-02T02:07:32;17.63;;;10.17;;
11854;SDS011;5987;53.140;8.904;2024-03-02T02:10:37;14.63;;;9.03;;
11854;SDS011;5987;53.140;8.904;2024-03-02T02:13:41;15.60;;;10.67;;
11854;SDS011;5987;53.140;8.904;2024-03-02T02:16:45;12.53;;;8.63;;
11854;SDS011;5987;53.140;8.904;2024-03-02T02:19:49;13.93;;;8.30;;
11854;SDS011;5987;53.140;8.904;2024-03-02T02:22:58;15.20;;;9.50;;
11854;SDS011;5987;53.140;8.904;2024-03-02T02:26:03;17.17;;;9.37;;
11854;SDS011;5987;53.140;8.904;2024-03-02T02:29:07;16.23;;;9.70;;
11854;SDS011;5987;53.140;8.904;2024-03-02T02:32:10;14.80;;;9.37;;
11854;SDS011;5987;53.140;8.904;2024-03-02T02:35:14;13.83;;;8.93;;
11854;SDS011;5987;53.140;8.904;2024-03-02T02:38:19;15.53;;;9.20;;
11854;SDS011;5987;53.140;8.904;2024-03-02T02:41:23;17.03;;;10.13;;
11854;SDS011;5987;53.140;8.904;2024-03-02T02:44:27;15.50;;;8.90;;
11854;SDS011;5987;53.140;8.904;2024-03-02T02:47:31;17.80;;;9.67;;
11854;SDS011;5987;53.140;8.904;2024-03-02T02:50:36;16.73;;;9.73;;
11854;SDS011;5987;53.140;8.904;2024-03-02T02:53:42;13.73;;;9.23;;
11854;SDS011;5987;53.140;8.904;2024-03-02T02:56:45;15.07;;;9.20;;
11854;SDS011;5987;53.140;8.904;2024-03-02T02:59:49;18.50;;;10.93;;
11854;SDS011;5987;53.140;8.904;2024-03-02T03:02:53;17.03;;;10.17;;
11854;SDS011;5987;53.140;8.904;2024-03-02T03:05:57;16.23;;;10.43;;
11854;SDS011;5987;53.140;8.904;2024-03-02T03:09:02;19.43;;;10.03;;
11854;SDS011;5987;53.140;8.904;2024-03-02T03:12:06;17.87;;;10.57;;
11854;SDS011;5987;53.140;8.904;2024-03-02T03:15:11;17.10;;;11.23;;
11854;SDS011;5987;53.140;8.904;2024-03-02T03:18:15;17.83;;;10.70;;
11854;SDS011;5987;53.140;8.904;2024-03-02T03:21:19;21.80;;;10.93;;
11854;SDS011;5987;53.140;8.904;2024-03-02T03:24:24;19.67;;;11.73;;
11854;SDS011;5987;53.140;8.904;2024-03-02T03:27:28;17.00;;;10.03;;
11854;SDS011;5987;53.140;8.904;2024-03-02T03:30:32;15.40;;;10.23;;
11854;SDS011;5987;53.140;8.904;2024-03-02T03:33:36;16.40;;;10.50;;
11854;SDS011;5987;53.140;8.904;2024-03-02T03:36:40;20.37;;;11.33;;
11854;SDS011;5987;53.140;8.904;2024-03-02T03:39:45;19.27;;;11.47;;
11854;SDS011;5987;53.140;8.904;2024-03-02T03:42:49;22.20;;;11.70;;
11854;SDS011;5987;53.140;8.904;2024-03-02T03:45:53;17.10;;;10.93;;
11854;SDS011;5987;53.140;8.904;2024-03-02T03:48:57;19.03;;;10.43;;
11854;SDS011;5987;53.140;8.904;2024-03-02T03:52:01;15.60;;;9.90;;
11854;SDS011;5987;53.140;8.904;2024-03-02T03:55:08;17.23;;;10.00;;
11854;SDS011;5987;53.140;8.904;2024-03-02T03:58:12;14.93;;;9.53;;
11854;SDS011;5987;53.140;8.904;2024-03-02T04:01:16;15.70;;;10.27;;
11854;SDS011;5987;53.140;8.904;2024-03-02T04:04:20;18.07;;;10.50;;
11854;SDS011;5987;53.140;8.904;2024-03-02T04:07:24;18.77;;;10.93;;
11854;SDS011;5987;53.140;8.904;2024-03-02T04:10:29;18.13;;;10.30;;
11854;SDS011;5987;53.140;8.904;2024-03-02T04:13:33;12.83;;;8.83;;
11854;SDS011;5987;53.140;8.904;2024-03-02T04:16:37;17.33;;;10.50;;
11854;SDS011;5987;53.140;8.904;2024-03-02T04:19:41;14.00;;;8.97;;
11854;SDS011;5987;53.140;8.904;2024-03-02T04:22:44;16.43;;;9.73;;
11854;SDS011;5987;53.140;8.904;2024-03-02T04:25:50;15.60;;;9.83;;
11854;SDS011;5987;53.140;8.904;2024-03-02T04:28:53;15.50;;;9.73;;
11854;SDS011;5987;53.140;8.904;2024-03-02T04:31:57;15.30;;;8.63;;
11854;SDS011;5987;53.140;8.904;2024-03-02T04:35:03;13.53;;;8.63;;
11854;SDS011;5987;53.140;8.904;2024-03-02T04:38:09;12.73;;;8.60;;
11854;SDS011;5987;53.140;8.904;2024-03-02T04:41:14;13.00;;;8.43;;
11854;SDS011;5987;53.140;8.904;2024-03-02T04:44:18;14.67;;;8.43;;
11854;SDS011;5987;53.140;8.904;2024-03-02T04:47:22;14.67;;;8.10;;
11854;SDS011;5987;53.140;8.904;2024-03-02T04:50:26;14.80;;;8.20;;
11854;SDS011;5987;53.140;8.904;2024-03-02T04:53:30;11.43;;;7.50;;
11854;SDS011;5987;53.140;8.904;2024-03-02T04:56:35;10.73;;;7.93;;
11854;SDS011;5987;53.140;8.904;2024-03-02T04:59:46;13.07;;;8.00;;
11854;SDS011;5987;53.140;8.904;2024-03-02T05:02:50;10.97;;;8.10;;
11854;SDS011;5987;53.140;8.904;2024-03-02T05:05:53;12.00;;;8.03;;
11854;SDS011;5987;53.140;8.904;2024-03-02T05:08:57;12.10;;;7.47;;
11854;SDS011;5987;53.140;8.904;2024-03-02T05:12:03;10.20;;;6.97;;
11854;SDS011;5987;53.140;8.904;2024-03-02T05:15:31;14.33;;;8.07;;
11854;SDS011;5987;53.140;8.904;2024-03-02T05:18:35;10.90;;;7.00;;
11854;SDS011;5987;53.140;8.904;2024-03-02T05:21:41;10.93;;;7.17;;
11854;SDS011;5987;53.140;8.904;2024-03-02T05:24:45;10.67;;;7.23;;
11854;SDS011;5987;53.140;8.904;2024-03-02T05:27:50;11.03;;;6.97;;
11854;SDS011;5987;53.140;8.904;2024-03-02T05:30:54;14.47;;;8.30;;
11854;SDS011;5987;53.140;8.904;2024-03-02T05:33:58;12.73;;;8.07;;
11854;SDS011;5987;53.140;8.904;2024-03-02T05:37:02;12.53;;;8.20;;
11854;SDS011;5987;53.140;8.904;2024-03-02T05:40:07;14.37;;;8.43;;
11854;SDS011;5987;53.140;8.904;2024-03-02T05:43:14;12.77;;;7.90;;
11854;SDS011;5987;53.140;8.904;2024-03-02T05:46:18;10.40;;;7.50;;
11854;SDS011;5987;53.140;8.904;2024-03-02T05:49:22;14.33;;;8.53;;
11854;SDS011;5987;53.140;8.904;2024-03-02T05:52:26;14.40;;;8.53;;
11854;SDS011;5987;53.140;8.904;2024-03-02T05:55:30;14.13;;;8.10;;
11854;SDS011;5987;53.140;8.904;2024-03-02T05:58:35;12.53;;;7.37;;
11854;SDS011;5987;53.140;8.904;2024-03-02T06:01:54;13.17;;;8.37;;
11854;SDS011;5987;53.140;8.904;2024-03-02T06:04:58;12.83;;;8.43;;
11854;SDS011;5987;53.140;8.904;2024-03-02T06:08:02;12.80;;;9.00;;
11854;SDS011;5987;53.140;8.904;2024-03-02T06:11:06;13.77;;;8.03;;
11854;SDS011;5987;53.140;8.904;2024-03-02T06:14:12;16.60;;;9.33;;
11854;SDS011;5987;53.140;8.904;2024-03-02T06:17:16;15.93;;;8.03;;
11854;SDS011;5987;53.140;8.904;2024-03-02T06:20:20;11.70;;;8.00;;
11854;SDS011;5987;53.140;8.904;2024-03-02T06:23:24;15.37;;;8.80;;
11854;SDS011;5987;53.140;8.904;2024-03-02T06:26:27;14.73;;;9.10;;
11854;SDS011;5987;53.140;8.904;2024-03-02T06:29:34;12.13;;;8.47;;
11854;SDS011;5987;53.140;8.904;2024-03-02T06:32:38;13.10;;;8.87;;
11854;SDS011;5987;53.140;8.904;2024-03-02T06:35:42;13.83;;;8.83;;
11854;SDS011;5987;53.140;8.904;2024-03-02T06:38:46;11.83;;;8.27;;
11854;SDS011;5987;53.140;8.904;2024-03-02T06:41:50;12.70;;;8.43;;
11854;SDS011;5987;53.140;8.904;2024-03-02T06:44:56;14.83;;;9.70;;
11854;SDS011;5987;53.140;8.904;2024-03-02T06:47:59;15.53;;;9.00;;
11854;SDS011;5987;53.140;8.904;2024-03-02T06:51:03;14.67;;;9.33;;
11854;SDS011;5987;53.140;8.904;2024-03-02T06:54:07;12.87;;;8.77;;
11854;SDS011;5987;53.140;8.904;2024-03-02T06:57:11;14.23;;;9.03;;
11854;SDS011;5987;53.140;8.904;2024-03-02T07:00:16;17.13;;;10.27;;
11854;SDS011;5987;53.140;8.904;2024-03-02T07:03:22;14.67;;;9.33;;
11854;SDS011;5987;53.140;8.904;2024-03-02T07:06:25;13.13;;;8.30;;
11854;SDS011;5987;53.140;8.904;2024-03-02T07:09:29;13.73;;;8.20;;
11854;SDS011;5987;53.140;8.904;2024-03-02T07:12:33;14.00;;;8.40;;
11854;SDS011;5987;53.140;8.904;2024-03-02T07:15:38;15.57;;;9.90;;
11854;SDS011;5987;53.140;8.904;2024-03-02T07:19:12;16.50;;;8.93;;
11854;SDS011;5987;53.140;8.904;2024-03-02T07:22:16;15.67;;;9.20;;
11854;SDS011;5987;53.140;8.904;2024-03-02T07:25:20;13.63;;;8.37;;
11854;SDS011;5987;53.140;8.904;2024-03-02T07:28:27;13.03;;;8.67;;
11854;SDS011;5987;53.140;8.904;2024-03-02T07:31:33;13.70;;;9.00;;
11854;SDS011;5987;53.140;8.904;2024-03-02T07:34:37;14.47;;;9.13;;
11854;SDS011;5987;53.140;8.904;2024-03-02T07:37:41;14.33;;;8.67;;
11854;SDS011;5987;53.140;8.904;2024-03-02T07:40:54;14.80;;;8.80;;
11854;SDS011;5987;53.140;8.904;2024-03-02T07:44:18;15.40;;;8.67;;
11854;SDS011;5987;53.140;8.904;2024-03-02T07:47:26;15.17;;;9.20;;
11854;SDS011;5987;53.140;8.904;2024-03-02T07:50:31;15.73;;;9.53;;
11854;SDS011;5987;53.140;8.904;2024-03-02T07:53:36;16.83;;;8.83;;
11854;SDS011;5987;53.140;8.904;2024-03-02T07:56:42;14.60;;;9.83;;
11854;SDS011;5987;53.140;8.904;2024-03-02T07:59:46;18.73;;;9.87;;
11854;SDS011;5987;53.140;8.904;2024-03-02T08:02:52;15.50;;;9.30;;
11854;SDS011;5987;53.140;8.904;2024-03-02T08:05:56;16.90;;;9.20;;
11854;SDS011;5987;53.140;8.904;2024-03-02T08:09:00;15.93;;;9.53;;
11854;SDS011;5987;53.140;8.904;2024-03-02T08:12:10;17.13;;;8.47;;
11854;SDS011;5987;53.140;8.904;2024-03-02T08:15:18;14.93;;;9.23;;
11854;SDS011;5987;53.140;8.904;2024-03-02T08:18:25;13.37;;;8.70;;
11854;SDS011;5987;53.140;8.904;2024-03-02T08:21:30;16.10;;;9.43;;
11854;SDS011;5987;53.140;8.904;2024-03-02T08:24:37;15.43;;;9.50;;
11854;SDS011;5987;53.140;8.904;2024-03-02T08:27:40;16.73;;;9.27;;
11854;SDS011;5987;53.140;8.904;2024-03-02T08:30:45;15.17;;;8.90;;
11854;SDS011;5987;53.140;8.904;2024-03-02T08:33:50;15.30;;;9.03;;
11854;SDS011;5987;53.140;8.904;2024-03-02T08:36:54;17.37;;;8.60;;
11854;SDS011;5987;53.140;8.904;2024-03-02T08:39:58;13.43;;;9.03;;
11854;SDS011;5987;53.140;8.904;2024-03-02T08:43:03;18.20;;;10.40;;
11854;SDS011;5987;53.140;8.904;2024-03-02T08:46:07;14.80;;;9.50;;
11854;SDS011;5987;53.140;8.904;2024-03-02T08:49:13;13.93;;;8.17;;
11854;SDS011;5987;53.140;8.904;2024-03-02T08:52:17;16.77;;;9.23;;
11854;SDS011;5987;53.140;8.904;2024-03-02T08:55:20;14.13;;;9.07;;
11854;SDS011;5987;53.140;8.904;2024-03-02T08:58:24;15.93;;;9.60;;
11854;SDS011;5987;53.140;8.904;2024-03-02T09:01:28;14.03;;;9.20;;
11854;SDS011;5987;53.140;8.904;2024-03-02T09:04:34;13.87;;;8.27;;
11854;SDS011;5987;53.140;8.904;2024-03-02T09:07:38;13.00;;;7.90;;
11854;SDS011;5987;53.140;8.904;2024-03-02T09:10:41;16.73;;;9.37;;
11854;SDS011;5987;53.140;8.904;2024-03-02T09:13:45;14.10;;;7.87;;
11854;SDS011;5987;53.140;8.904;2024-03-02T09:16:49;14.50;;;8.97;;
11854;SDS011;5987;53.140;8.904;2024-03-02T09:19:54;13.30;;;8.20;;
11854;SDS011;5987;53.140;8.904;2024-03-02T09:22:58;12.63;;;7.80;;
11854;SDS011;5987;53.140;8.904;2024-03-02T09:26:02;13.30;;;7.87;;
11854;SDS011;5987;53.140;8.904;2024-03-02T09:29:06;13.87;;;7.87;;
11854;SDS011;5987;53.140;8.904;2024-03-02T09:32:12;13.37;;;8.27;;
11854;SDS011;5987;53.140;8.904;2024-03-02T09:35:18;14.53;;;9.00;;
11854;SDS011;5987;53.140;8.904;2024-03-02T09:38:22;21.30;;;9.20;;
11854;SDS011;5987;53.140;8.904;2024-03-02T09:41:26;11.93;;;7.87;;
11854;SDS011;5987;53.140;8.904;2024-03-02T09:44:30;13.93;;;9.03;;
11854;SDS011;5987;53.140;8.904;2024-03-02T09:47:35;14.77;;;8.60;;
11854;SDS011;5987;53.140;8.904;2024-03-02T09:50:41;12.10;;;8.13;;
11854;SDS011;5987;53.140;8.904;2024-03-02T09:53:47;14.20;;;8.40;;
11854;SDS011;5987;53.140;8.904;2024-03-02T09:56:51;13.77;;;8.23;;
11854;SDS011;5987;53.140;8.904;2024-03-02T09:59:55;17.83;;;9.33;;
11854;SDS011;5987;53.140;8.904;2024-03-02T10:02:59;17.53;;;8.77;;
11854;SDS011;5987;53.140;8.904;2024-03-02T10:06:20;14.03;;;8.07;;
11854;SDS011;5987;53.140;8.904;2024-03-02T10:09:26;12.27;;;7.37;;
11854;SDS011;5987;53.140;8.904;2024-03-02T10:12:31;13.63;;;8.20;;
11854;SDS011;5987;53.140;8.904;2024-03-02T10:15:40;12.23;;;7.67;;
11854;SDS011;5987;53.140;8.904;2024-03-02T10:18:45;10.93;;;7.57;;
11854;SDS011;5987;53.140;8.904;2024-03-02T10:21:50;11.77;;;6.83;;
11854;SDS011;5987;53.140;8.904;2024-03-02T10:24:56;14.27;;;7.50;;
11854;SDS011;5987;53.140;8.904;2024-03-02T10:28:00;11.70;;;7.17;;
11854;SDS011;5987;53.140;8.904;2024-03-02T10:31:06;13.60;;;7.03;;
11854;SDS011;5987;53.140;8.904;2024-03-02T10:34:12;10.30;;;6.77;;
11854;SDS011;5987;53.140;8.904;2024-03-02T10:37:19;12.07;;;7.20;;
11854;SDS011;5987;53.140;8.904;2024-03-02T10:40:24;10.60;;;7.10;;
11854;SDS011;5987;53.140;8.904;2024-03-02T10:43:29;15.73;;;7.00;;
11854;SDS011;5987;53.140;8.904;2024-03-02T10:46:35;11.60;;;6.27;;
11854;SDS011;5987;53.140;8.904;2024-03-02T10:49:40;11.03;;;5.97;;
11854;SDS011;5987;53.140;8.904;2024-03-02T10:52:47;10.57;;;6.43;;
11854;SDS011;5987;53.140;8.904;2024-03-02T10:55:51;10.07;;;6.50;;
11854;SDS011;5987;53.140;8.904;2024-03-02T10:59:06;12.20;;;6.70;;
11854;SDS011;5987;53.140;8.904;2024-03-02T11:02:23;11.57;;;6.10;;
11854;SDS011;5987;53.140;8.904;2024-03-02T11:05:31;8.30;;;6.07;;
11854;SDS011;5987;53.140;8.904;2024-03-02T11:08:40;12.73;;;6.80;;
11854;SDS011;5987;53.140;8.904;2024-03-02T11:11:53;10.03;;;5.93;;
11854;SDS011;5987;53.140;8.904;2024-03-02T11:15:10;10.57;;;6.20;;
11854;SDS011;5987;53.140;8.904;2024-03-02T11:18:20;12.00;;;6.73;;
11854;SDS011;5987;53.140;8.904;2024-03-02T11:21:25;10.20;;;5.90;;
11854;SDS011;5987;53.140;8.904;2024-03-02T11:24:34;10.50;;;7.07;;
11854;SDS011;5987;53.140;8.904;2024-03-02T11:31:03;9.17;;;5.97;;
11854;SDS011;5987;53.140;8.904;2024-03-02T11:34:17;12.60;;;5.97;;
11854;SDS011;5987;53.140;8.904;2024-03-02T11:37:32;9.53;;;6.47;;
11854;SDS011;5987;53.140;8.904;2024-03-02T11:40:38;10.13;;;6.57;;
11854;SDS011;5987;53.140;8.904;2024-03-02T11:43:43;9.30;;;5.30;;
11854;SDS011;5987;53.140;8.904;2024-03-02T11:46:51;8.23;;;4.80;;
11854;SDS011;5987;53.140;8.904;2024-03-02T11:49:56;9.20;;;5.60;;
11854;SDS011;5987;53.140;8.904;2024-03-02T11:53:01;9.43;;;5.33;;
11854;SDS011;5987;53.140;8.904;2024-03-02T11:56:10;9.23;;;5.87;;
11854;SDS011;5987;53.140;8.904;2024-03-02T11:59:16;11.23;;;6.30;;
11854;SDS011;5987;53.140;8.904;2024-03-02T12:02:22;8.70;;;5.63;;
11854;SDS011;5987;53.140;8.904;2024-03-02T12:05:26;9.47;;;5.90;;
11854;SDS011;5987;53.140;8.904;2024-03-02T12:08:31;8.37;;;6.03;;
11854;SDS011;5987;53.140;8.904;2024-03-02T12:11:37;10.67;;;6.30;;
11854;SDS011;5987;53.140;8.904;2024-03-02T12:14:41;8.73;;;5.93;;
11854;SDS011;5987;53.140;8.904;2024-03-02T12:17:54;12.73;;;5.40;;
11854;SDS011;5987;53.140;8.904;2024-03-02T12:20:58;8.63;;;5.77;;
11854;SDS011;5987;53.140;8.904;2024-03-02T12:24:04;10.37;;;6.07;;
11854;SDS011;5987;53.140;8.904;2024-03-02T12:27:10;6.37;;;4.20;;
11854;SDS011;5987;53.140;8.904;2024-03-02T12:30:16;7.80;;;5.00;;
11854;SDS011;5987;53.140;8.904;2024-03-02T12:33:20;7.33;;;5.10;;
11854;SDS011;5987;53.140;8.904;2024-03-02T12:36:26;7.80;;;4.67;;
11854;SDS011;5987;53.140;8.904;2024-03-02T12:39:29;9.07;;;5.67;;
11854;SDS011;5987;53.140;8.904;2024-03-02T12:42:36;6.33;;;5.10;;
11854;SDS011;5987;53.140;8.904;2024-03-02T12:45:40;7.90;;;4.57;;
11854;SDS011;5987;53.140;8.904;2024-03-02T12:48:44;7.73;;;4.77;;
11854;SDS011;5987;53.140;8.904;2024-03-02T12:51:49;7.50;;;4.50;;
11854;SDS011;5987;53.140;8.904;2024-03-02T12:54:55;7.03;;;4.73;;
11854;SDS011;5987;53.140;8.904;2024-03-02T13:04:54;8.03;;;4.70;;
11854;SDS011;5987;53.140;8.904;2024-03-02T13:07:59;6.10;;;4.10;;
11854;SDS011;5987;53.140;8.904;2024-03-02T13:11:05;6.10;;;4.20;;
11854;SDS011;5987;53.140;8.904;2024-03-02T13:14:11;5.30;;;3.47;;
11854;SDS011;5987;53.140;8.904;2024-03-02T13:17:15;6.17;;;3.70;;
11854;SDS011;5987;53.140;8.904;2024-03-02T13:20:20;5.20;;;3.67;;
11854;SDS011;5987;53.140;8.904;2024-03-02T13:23:26;5.00;;;3.67;;
11854;SDS011;5987;53.140;8.904;2024-03-02T13:26:32;6.30;;;3.90;;
11854;SDS011;5987;53.140;8.904;2024-03-02T13:29:37;6.70;;;4.17;;
11854;SDS011;5987;53.140;8.904;2024-03-02T13:32:41;4.57;;;2.20;;
11854;SDS011;5987;53.140;8.904;2024-03-02T13:35:45;5.30;;;3.10;;
11854;SDS011;5987;53.140;8.904;2024-03-02T13:38:49;4.33;;;3.03;;
11854;SDS011;5987;53.140;8.904;2024-03-02T13:41:52;4.37;;;3.10;;
11854;SDS011;5987;53.140;8.904;2024-03-02T13:45:06;4.23;;;3.00;;
11854;SDS011;5987;53.140;8.904;2024-03-02T13:48:11;6.73;;;2.83;;
11854;SDS011;5987;53.140;8.904;2024-03-02T13:51:16;4.53;;;2.67;;
11854;SDS011;5987;53.140;8.904;2024-03-02T13:54:20;4.63;;;2.73;;
11854;SDS011;5987;53.140;8.904;2024-03-02T13:57:25;4.17;;;2.47;;
11854;SDS011;5987;53.140;8.904;2024-03-02T14:00:31;4.43;;;2.57;;
11854;SDS011;5987;53.140;8.904;2024-03-02T14:03:36;6.93;;;3.40;;
11854;SDS011;5987;53.140;8.904;2024-03-02T14:06:39;5.80;;;4.07;;
11854;SDS011;5987;53.140;8.904;2024-03-02T14:09:45;5.43;;;3.67;;
11854;SDS011;5987;53.140;8.904;2024-03-02T14:12:49;4.37;;;3.37;;
11854;SDS011;5987;53.140;8.904;2024-03-02T14:15:55;4.43;;;3.10;;
11854;SDS011;5987;53.140;8.904;2024-03-02T14:19:00;5.70;;;3.40;;
11854;SDS011;5987;53.140;8.904;2024-03-02T14:22:06;4.77;;;3.20;;
11854;SDS011;5987;53.140;8.904;2024-03-02T14:25:12;5.87;;;3.80;;
11854;SDS011;5987;53.140;8.904;2024-03-02T14:28:16;5.23;;;3.07;;
11854;SDS011;5987;53.140;8.904;2024-03-02T14:31:42;4.40;;;3.03;;
11854;SDS011;5987;53.140;8.904;2024-03-02T14:34:49;4.10;;;3.13;;
11854;SDS011;5987;53.140;8.904;2024-03-02T14:37:53;7.73;;;3.97;;
11854;SDS011;5987;53.140;8.904;2024-03-02T14:41:03;7.47;;;3.77;;
11854;SDS011;5987;53.140;8.904;2024-03-02T14:44:07;14.60;;;5.50;;
11854;SDS011;5987;53.140;8.904;2024-03-02T14:47:13;17.07;;;7.10;;
11854;SDS011;5987;53.140;8.904;2024-03-02T14:50:17;4.57;;;3.50;;
11854;SDS011;5987;53.140;8.904;2024-03-02T14:53:21;7.80;;;3.47;;
11854;SDS011;5987;53.140;8.904;2024-03-02T14:56:25;13.40;;;3.60;;
11854;SDS011;5987;53.140;8.904;2024-03-02T14:59:30;11.47;;;4.27;;
11854;SDS011;5987;53.140;8.904;2024-03-02T15:02:35;5.27;;;3.43;;
11854;SDS011;5987;53.140;8.904;2024-03-02T15:05:39;6.97;;;3.37;;
11854;SDS011;5987;53.140;8.904;2024-03-02T15:08:43;7.33;;;4.27;;
11854;SDS011;5987;53.140;8.904;2024-03-02T15:11:48;5.33;;;3.50;;
11854;SDS011;5987;53.140;8.904;2024-03-02T15:14:52;6.53;;;3.53;;
11854;SDS011;5987;53.140;8.904;2024-03-02T15:17:57;5.53;;;3.30;;
11854;SDS011;5987;53.140;8.904;2024-03-02T15:21:03;7.20;;;4.20;;
11854;SDS011;5987;53.140;8.904;2024-03-02T15:24:07;7.57;;;4.07;;
11854;SDS011;5987;53.140;8.904;2024-03-02T15:27:12;6.37;;;4.73;;
11854;SDS011;5987;53.140;8.904;2024-03-02T15:30:16;6.27;;;4.30;;
11854;SDS011;5987;53.140;8.904;2024-03-02T15:33:21;7.20;;;4.97;;
11854;SDS011;5987;53.140;8.904;2024-03-02T15:36:31;5.53;;;4.23;;
11854;SDS011;5987;53.140;8.904;2024-03-02T15:39:35;9.50;;;4.80;;
11854;SDS011;5987;53.140;8.904;2024-03-02T15:42:39;5.97;;;3.80;;
11854;SDS011;5987;53.140;8.904;2024-03-02T15:45:43;6.77;;;4.10;;
11854;SDS011;5987;53.140;8.904;2024-03-02T15:48:48;7.83;;;4.80;;
11854;SDS011;5987;53.140;8.904;2024-03-02T15:51:52;5.87;;;3.63;;
11854;SDS011;5987;53.140;8.904;2024-03-02T15:54:56;7.90;;;3.73;;
11854;SDS011;5987;53.140;8.904;2024-03-02T15:58:00;5.80;;;3.20;;
11854;SDS011;5987;53.140;8.904;2024-03-02T16:01:07;5.43;;;3.53;;
11854;SDS011;5987;53.140;8.904;2024-03-02T16:04:12;4.80;;;3.10;;
11854;SDS011;5987;53.140;8.904;2024-03-02T16:07:17;5.50;;;3.87;;
11854;SDS011;5987;53.140;8.904;2024-03-02T16:10:21;5.53;;;3.50;;
11854;SDS011;5987;53.140;8.904;2024-03-02T16:13:26;5.43;;;3.43;;
11854;SDS011;5987;53.140;8.904;2024-03-02T16:16:30;9.70;;;5.07;;
11854;SDS011;5987;53.140;8.904;2024-03-02T16:19:36;5.07;;;2.77;;
11854;SDS011;5987;53.140;8.904;2024-03-02T16:22:43;4.33;;;3.10;;
11854;SDS011;5987;53.140;8.904;2024-03-02T16:25:46;4.97;;;3.57;;
11854;SDS011;5987;53.140;8.904;2024-03-02T16:28:50;7.70;;;4.30;;
11854;SDS011;5987;53.140;8.904;2024-03-02T16:31:54;6.53;;;4.83;;
11854;SDS011;5987;53.140;8.904;2024-03-02T16:34:59;11.43;;;8.97;;
11854;SDS011;5987;53.140;8.904;2024-03-02T16:38:03;31.23;;;20.03;;
11854;SDS011;5987;53.140;8.904;2024-03-02T16:41:07;25.33;;;18.87;;
11854;SDS011;5987;53.140;8.904;2024-03-02T16:44:11;13.03;;;5.90;;
11854;SDS011;5987;53.140;8.904;2024-03-02T16:47:15;6.80;;;4.40;;
11854;SDS011;5987;53.140;8.904;2024-03-02T16:50:21;13.13;;;7.30;;
11854;SDS011;5987;53.140;8.904;2024-03-02T16:53:25;5.37;;;4.17;;
11854;SDS011;5987;53.140;8.904;2024-03-02T16:56:29;6.43;;;3.37;;
11854;SDS011;5987;53.140;8.904;2024-03-02T16:59:41;30.97;;;19.30;;
11854;SDS011;5987;53.140;8.904;2024-03-02T17:02:45;7.20;;;5.47;;
11854;SDS011;5987;53.140;8.904;2024-03-02T17:05:51;6.67;;;5.10;;
11854;SDS011;5987;53.140;8.904;2024-03-02T17:08:56;5.73;;;3.93;;
11854;SDS011;5987;53.140;8.904;2024-03-02T17:12:00;12.97;;;9.73;;
11854;SDS011;5987;53.140;8.904;2024-03-02T17:15:04;14.57;;;10.10;;
11854;SDS011;5987;53.140;8.904;2024-03-02T17:18:08;6.73;;;4.10;;
11854;SDS011;5987;53.140;8.904;2024-03-02T17:21:14;10.83;;;6.57;;
11854;SDS011;5987;53.140;8.904;2024-03-02T17:24:18;11.17;;;7.53;;
11854;SDS011;5987;53.140;8.904;2024-03-02T17:27:22;7.77;;;4.93;;
11854;SDS011;5987;53.140;8.904;2024-03-02T17:30:25;9.77;;;7.10;;
11854;SDS011;5987;53.140;8.904;2024-03-02T17:33:29;13.37;;;10.47;;
11854;SDS011;5987;53.140;8.904;2024-03-02T17:36:35;27.27;;;21.57;;
11854;SDS011;5987;53.140;8.904;2024-03-02T17:39:38;31.47;;;22.47;;
11854;SDS011;5987;53.140;8.904;2024-03-02T17:42:42;39.07;;;25.47;;
11854;SDS011;5987;53.140;8.904;2024-03-02T17:45:46;88.50;;;53.80;;
11854;SDS011;5987;53.140;8.904;2024-03-02T17:48:50;61.73;;;40.00;;
11854;SDS011;5987;53.140;8.904;2024-03-02T17:51:56;31.33;;;19.73;;
11854;SDS011;5987;53.140;8.904;2024-03-02T17:55:00;23.80;;;17.70;;
11854;SDS011;5987;53.140;8.904;2024-03-02T17:58:04;38.50;;;25.97;;
11854;SDS011;5987;53.140;8.904;2024-03-02T18:01:08;56.60;;;36.50;;
11854;SDS011;5987;53.140;8.904;2024-03-02T18:04:13;16.57;;;12.00;;
11854;SDS011;5987;53.140;8.904;2024-03-02T18:07:18;26.03;;;19.53;;
11854;SDS011;5987;53.140;8.904;2024-03-02T18:10:22;27.93;;;19.43;;
11854;SDS011;5987;53.140;8.904;2024-03-02T18:13:26;7.60;;;5.60;;
11854;SDS011;5987;53.140;8.904;2024-03-02T18:16:31;6.50;;;5.03;;
11854;SDS011;5987;53.140;8.904;2024-03-02T18:19:34;18.90;;;12.53;;
11854;SDS011;5987;53.140;8.904;2024-03-02T18:22:40;18.00;;;11.20;;
11854;SDS011;5987;53.140;8.904;2024-03-02T18:25:44;14.10;;;9.90;;
11854;SDS011;5987;53.140;8.904;2024-03-02T18:28:48;12.60;;;10.63;;
11854;SDS011;5987;53.140;8.904;2024-03-02T18:31:52;12.33;;;8.80;;
11854;SDS011;5987;53.140;8.904;2024-03-02T18:34:57;20.03;;;14.80;;
11854;SDS011;5987;53.140;8.904;2024-03-02T18:38:02;48.47;;;28.47;;
11854;SDS011;5987;53.140;8.904;2024-03-02T18:41:06;10.53;;;8.97;;
11854;SDS011;5987;53.140;8.904;2024-03-02T18:44:10;19.17;;;15.40;;
11854;SDS011;5987;53.140;8.904;2024-03-02T18:47:15;19.17;;;14.90;;